Time;durP1;ratioP1;P1;durP2;ratioP2;P2;SDS_P1;SDS_P2;PMS_P1;PMS_P2;Temp;Humidity;BMP_temperature;BMP_pressure;BME280_temperature;BME280_humidity;BME280_pressure;Samples;Min_cycle;Max_cycle;Signal;HPM_P1;HPM_P2
2022/08/14 00:01:59;;;;;;;2.67;1.93;;;19.10;90.60;;;;;;5074195;28;20208;-38
2022/08/14 00:04:24;;;;;;;2.97;1.80;;;19.10;91.10;;;;;;5073810;28;20168;-35
2022/08/14 00:06:50;;;;;;;4.83;2.60;;;19.00;91.30;;;;;;5073726;28;20196;-38
2022/08/14 00:09:16;;;;;;;2.13;1.93;;;18.90;91.80;;;;;;5073946;28;20175;-38
2022/08/14 00:11:41;;;;;;;4.10;2.60;;;18.90;91.90;;;;;;5074044;28;20196;-37
2022/08/14 00:14:07;;;;;;;4.00;2.60;;;18.90;92.60;;;;;;5073794;28;20255;-39
2022/08/14 00:16:32;;;;;;;8.07;2.90;;;19.00;92.60;;;;;;5073742;28;20191;-37
2022/08/14 00:18:59;;;;;;;4.87;2.80;;;19.00;93.10;;;;;;5073978;28;20180;-39
2022/08/14 00:21:24;;;;;;;3.07;2.37;;;19.00;92.60;;;;;;5073729;28;20195;-39
2022/08/14 00:23:52;;;;;;;3.20;2.63;;;19.00;92.90;;;;;;5073648;28;20226;-37
2022/08/14 00:26:18;;;;;;;7.37;2.70;;;19.10;92.60;;;;;;5055723;28;20164;-39
2022/08/14 00:28:43;;;;;;;3.07;2.43;;;19.10;92.30;;;;;;5073799;28;20221;-39
2022/08/14 00:31:09;;;;;;;3.47;2.47;;;19.00;91.80;;;;;;5073527;28;20191;-38
2022/08/14 00:33:35;;;;;;;3.13;2.40;;;19.00;91.80;;;;;;5073791;28;20187;-37
2022/08/14 00:36:01;;;;;;;5.40;2.43;;;18.90;91.90;;;;;;5073476;28;20175;-37
2022/08/14 00:38:26;;;;;;;3.00;2.27;;;18.90;92.00;;;;;;5055889;28;20647;-37
2022/08/14 00:40:52;;;;;;;2.87;2.37;;;18.80;91.90;;;;;;5055384;28;20635;-38
2022/08/14 00:43:17;;;;;;;4.87;2.23;;;18.70;92.10;;;;;;5073649;28;20557;-39
2022/08/14 00:45:43;;;;;;;4.17;2.40;;;18.60;92.40;;;;;;5073417;28;20485;-38
2022/08/14 00:48:09;;;;;;;3.47;2.63;;;18.60;92.60;;;;;;5073419;28;20205;-38
2022/08/14 00:50:34;;;;;;;6.33;2.43;;;18.50;92.80;;;;;;5073553;28;20195;-37
2022/08/14 00:53:00;;;;;;;3.50;2.33;;;18.50;92.90;;;;;;5073870;28;20258;-39
2022/08/14 00:55:27;;;;;;;5.83;2.33;;;18.50;93.40;;;;;;5073641;28;20624;-39
2022/08/14 01:00:37;;;;;;;3.63;2.57;;;18.40;94.00;;;;;;5073678;28;20211;-40
2022/08/14 01:03:05;;;;;;;3.23;2.90;;;18.40;94.40;;;;;;5073490;28;20685;-39
2022/08/14 01:05:32;;;;;;;3.03;2.77;;;18.40;94.60;;;;;;5073334;28;20202;-40
2022/08/14 01:07:59;;;;;;;4.90;2.70;;;18.40;94.40;;;;;;5073449;28;20179;-37
2022/08/14 01:10:49;;;;;;;3.10;2.60;;;18.40;94.50;;;;;;5055143;28;20203;-38
2022/08/14 01:13:15;;;;;;;2.93;2.73;;;18.30;95.30;;;;;;5073076;28;20559;-38
2022/08/14 01:15:49;;;;;;;3.27;2.80;;;18.40;96.40;;;;;;5073176;28;20535;-37
2022/08/14 01:21:02;;;;;;;3.33;2.90;;;18.50;98.70;;;;;;5077348;28;20713;-38
2022/08/14 01:23:30;;;;;;;5.17;3.10;;;18.70;99.20;;;;;;5077362;28;20522;-39
2022/08/14 01:25:57;;;;;;;2.80;2.60;;;18.80;99.10;;;;;;5077073;28;20203;-38
2022/08/14 01:28:25;;;;;;;4.17;2.77;;;19.00;99.40;;;;;;5077342;28;20631;-38
2022/08/14 01:30:54;;;;;;;3.63;3.30;;;19.10;99.10;;;;;;5077229;28;20203;-38
2022/08/14 01:33:21;;;;;;;5.03;3.23;;;19.20;99.10;;;;;;5076994;28;20176;-39
2022/08/14 01:35:47;;;;;;;3.47;2.93;;;19.30;99.10;;;;;;5077065;28;20209;-39
2022/08/14 01:38:16;;;;;;;3.70;3.33;;;19.40;99.50;;;;;;5077106;28;20639;-38
2022/08/14 01:40:41;;;;;;;6.00;3.40;;;19.30;99.60;;;;;;5076617;28;20257;-38
2022/08/14 01:43:16;;;;;;;8.00;3.30;;;19.50;99.50;;;;;;5077256;28;20175;-40
2022/08/14 01:45:43;;;;;;;4.73;3.57;;;19.50;99.60;;;;;;5076983;28;20175;-40
2022/08/14 01:48:09;;;;;;;4.13;3.50;;;19.60;99.90;;;;;;5076929;28;20275;-39
2022/08/14 01:50:35;;;;;;;5.67;3.40;;;19.60;99.00;;;;;;5076729;28;20202;-38
2022/08/14 01:53:02;;;;;;;7.70;3.17;;;19.40;98.80;;;;;;5076754;28;20237;-37
2022/08/14 01:55:30;;;;;;;4.70;3.10;;;19.30;98.40;;;;;;5076762;28;20186;-39
2022/08/14 01:57:57;;;;;;;5.13;3.10;;;19.20;98.30;;;;;;5058520;28;20207;-38
2022/08/14 02:00:23;;;;;;;3.80;3.00;;;19.10;98.70;;;;;;5076336;28;20200;-39
2022/08/14 02:02:49;;;;;;;8.30;3.07;;;19.00;99.10;;;;;;5076196;28;20208;-38
2022/08/14 02:05:16;;;;;;;4.37;3.20;;;19.00;99.50;;;;;;5076112;28;20191;-39
2022/08/14 02:07:45;;;;;;;4.50;3.57;;;18.80;99.70;;;;;;5076139;28;20651;-40
2022/08/14 02:10:12;;;;;;;3.77;3.33;;;18.80;99.90;;;;;;5076066;28;20693;-40
2022/08/14 02:12:38;;;;;;;5.63;3.10;;;18.70;99.90;;;;;;5076139;28;20183;-39
2022/08/14 02:15:04;;;;;;;3.63;3.30;;;18.70;99.90;;;;;;5076142;28;20176;-40
2022/08/14 02:17:32;;;;;;;3.80;3.37;;;18.60;99.90;;;;;;5076648;28;20516;-39
2022/08/14 02:19:57;;;;;;;4.67;3.60;;;18.50;99.90;;;;;;5058060;28;20180;-37
2022/08/14 02:22:24;;;;;;;6.77;3.17;;;18.50;99.90;;;;;;5076241;28;20615;-39
2022/08/14 02:24:50;;;;;;;4.43;3.30;;;18.40;99.90;;;;;;5075877;28;20205;-39
2022/08/14 02:27:17;;;;;;;6.97;3.83;;;18.40;99.90;;;;;;5076208;28;20199;-39
2022/08/14 02:29:43;;;;;;;3.97;3.57;;;18.40;99.90;;;;;;5075918;28;20183;-40
2022/08/14 02:32:10;;;;;;;6.40;3.83;;;18.40;99.90;;;;;;5075769;28;20245;-38
2022/08/14 02:34:37;;;;;;;6.07;3.87;;;18.40;99.90;;;;;;5075837;28;20167;-39
2022/08/14 02:37:10;;;;;;;3.90;3.60;;;18.40;99.90;;;;;;5075806;28;20168;-38
2022/08/14 02:39:42;;;;;;;4.40;3.67;;;18.40;99.90;;;;;;5075930;28;20183;-39
2022/08/14 02:42:11;;;;;;;3.90;3.43;;;18.50;99.90;;;;;;5076518;28;20546;-40
2022/08/14 02:44:39;;;;;;;4.23;3.67;;;18.40;99.90;;;;;;5057671;28;20183;-41
2022/08/14 02:47:07;;;;;;;5.23;3.83;;;18.40;99.90;;;;;;5075550;28;20693;-40
2022/08/14 02:49:33;;;;;;;4.70;3.67;;;18.30;99.90;;;;;;5075782;28;20187;-40
2022/08/14 02:51:59;;;;;;;3.70;3.40;;;18.30;99.90;;;;;;5075639;28;20284;-40
2022/08/14 02:54:25;;;;;;;3.37;3.07;;;18.30;99.90;;;;;;5075501;28;20203;-38
2022/08/14 02:56:53;;;;;;;5.83;4.17;;;18.20;99.90;;;;;;5057403;28;20194;-40
2022/08/14 02:59:20;;;;;;;6.07;3.80;;;18.10;99.90;;;;;;5075345;28;20537;-38
2022/08/14 03:01:46;;;;;;;4.27;3.83;;;18.10;99.90;;;;;;5075189;28;20207;-39
2022/08/14 03:04:13;;;;;;;4.43;3.83;;;18.00;99.90;;;;;;5075234;28;20184;-39
2022/08/14 03:06:42;;;;;;;4.20;3.80;;;17.90;99.90;;;;;;5075105;28;20187;-39
2022/08/14 03:09:08;;;;;;;4.13;3.73;;;17.90;99.90;;;;;;5075403;28;20262;-39
2022/08/14 03:11:34;;;;;;;5.00;3.77;;;17.80;99.90;;;;;;5075144;28;20227;-40
2022/08/14 03:14:00;;;;;;;5.27;4.10;;;17.80;99.90;;;;;;5075053;28;20203;-39
2022/08/14 03:16:26;;;;;;;5.67;4.30;;;17.80;99.90;;;;;;5075007;28;20206;-40
2022/08/14 03:18:53;;;;;;;4.53;4.10;;;17.80;99.90;;;;;;5075233;28;20564;-38
2022/08/14 03:21:24;;;;;;;6.90;4.40;;;17.70;99.90;;;;;;5074720;28;20675;-39
2022/08/14 03:23:59;;;;;;;6.80;4.43;;;17.70;99.90;;;;;;5075152;28;20250;-39
2022/08/14 03:26:26;;;;;;;5.47;4.33;;;17.80;99.90;;;;;;5074790;28;20577;-39
2022/08/14 03:28:52;;;;;;;9.97;4.53;;;17.80;99.90;;;;;;5075014;28;20255;-40
2022/08/14 03:31:21;;;;;;;5.83;5.03;;;17.80;99.90;;;;;;5074641;28;20290;-44
2022/08/14 03:33:47;;;;;;;4.40;3.93;;;17.80;99.90;;;;;;5074890;28;20223;-41
2022/08/14 03:36:15;;;;;;;5.20;4.70;;;17.80;99.90;;;;;;5074628;28;20172;-43
2022/08/14 03:38:43;;;;;;;4.80;4.40;;;17.90;99.90;;;;;;5074583;28;20175;-45
2022/08/14 03:41:15;;;;;;;5.87;4.60;;;17.90;99.90;;;;;;5073751;28;20203;-43
2022/08/14 03:43:45;;;;;;;6.77;4.70;;;17.90;99.90;;;;;;5074717;28;20563;-44
2022/08/14 03:46:12;;;;;;;5.37;4.23;;;18.00;99.90;;;;;;5074445;28;20176;-44
2022/08/14 03:48:39;;;;;;;5.40;4.57;;;18.10;99.90;;;;;;5074601;28;20183;-41
2022/08/14 03:51:07;;;;;;;8.43;4.87;;;18.20;99.90;;;;;;5074589;28;20675;-41
2022/08/14 03:53:37;;;;;;;10.77;4.63;;;18.30;99.90;;;;;;5074533;28;20175;-43
2022/08/14 03:56:05;;;;;;;7.03;4.73;;;18.30;99.90;;;;;;5074225;28;20171;-43
2022/08/14 03:58:31;;;;;;;9.53;5.00;;;18.30;99.90;;;;;;5074945;28;20172;-43
2022/08/14 04:00:58;;;;;;;7.03;4.50;;;18.40;99.90;;;;;;5056032;28;20303;-41
2022/08/14 04:03:25;;;;;;;6.10;4.70;;;18.40;99.90;;;;;;5074292;28;20171;-43
2022/08/14 04:05:52;;;;;;;5.60;5.03;;;18.40;99.90;;;;;;5074085;28;20184;-43
2022/08/14 04:08:19;;;;;;;5.80;4.50;;;18.40;99.90;;;;;;5074121;28;20214;-43
2022/08/14 04:10:45;;;;;;;5.33;4.80;;;18.40;99.90;;;;;;5074237;28;20199;-42
2022/08/14 04:13:15;;;;;;;5.60;5.03;;;18.40;99.90;;;;;;5074107;28;20186;-43
2022/08/14 04:15:41;;;;;;;7.33;5.07;;;18.40;99.90;;;;;;5074580;28;20535;-43
2022/08/14 04:18:07;;;;;;;7.80;5.23;;;18.30;99.90;;;;;;5074424;28;20195;-43
2022/08/14 04:20:38;;;;;;;5.20;4.60;;;18.30;99.90;;;;;;5074181;28;20697;-44
2022/08/14 04:23:05;;;;;;;7.10;4.93;;;18.30;99.90;;;;;;5074147;28;20254;-43
2022/08/14 04:25:35;;;;;;;5.93;4.67;;;18.30;99.90;;;;;;5073914;28;20184;-42
2022/08/14 04:28:05;;;;;;;5.20;4.57;;;18.20;99.90;;;;;;5073913;28;20213;-44
2022/08/14 04:30:32;;;;;;;6.43;4.53;;;18.20;99.90;;;;;;5073838;28;20226;-43
2022/08/14 04:32:58;;;;;;;13.17;5.20;;;18.20;99.90;;;;;;5073520;28;20179;-43
2022/08/14 04:35:23;;;;;;;6.63;4.67;;;18.20;99.90;;;;;;5073540;28;20526;-43
2022/08/14 04:43:37;;;;;;;10.57;5.40;;;18.30;99.90;;;;;;5073783;28;20166;-40
2022/08/14 04:46:05;;;;;;;4.77;4.37;;;18.30;99.90;;;;;;5073561;28;20183;-44
2022/08/14 04:48:30;;;;;;;5.13;4.40;;;18.30;99.90;;;;;;5073439;28;20183;-43
2022/08/14 04:50:56;;;;;;;7.70;4.80;;;18.40;99.90;;;;;;5072986;28;20567;-43
2022/08/14 04:53:25;;;;;;;5.60;4.67;;;18.40;99.90;;;;;;5073066;28;20215;-43
2022/08/14 04:55:52;;;;;;;6.17;4.67;;;18.40;99.90;;;;;;5073313;28;20234;-41
2022/08/14 04:58:23;;;;;;;4.77;4.27;;;18.50;99.90;;;;;;5073337;28;20643;-42
2022/08/14 05:00:50;;;;;;;4.27;3.87;;;18.50;99.90;;;;;;5073100;28;20203;-44
2022/08/14 05:03:20;;;;;;;5.03;4.50;;;18.50;99.90;;;;;;5073265;28;20336;-44
2022/08/14 05:05:50;;;;;;;4.97;4.07;;;18.50;99.90;;;;;;5073132;28;20209;-43
2022/08/14 05:08:16;;;;;;;7.27;4.27;;;18.60;99.90;;;;;;5073226;28;20220;-43
2022/08/14 05:10:53;;;;;;;5.53;4.57;;;18.70;99.90;;;;;;5073905;28;20203;-43
2022/08/14 05:13:23;;;;;;;5.50;4.47;;;18.80;99.90;;;;;;5073706;28;20167;-42
2022/08/14 05:15:51;;;;;;;7.33;4.60;;;18.90;99.90;;;;;;5073327;28;20254;-43
2022/08/14 05:18:19;;;;;;;5.23;4.47;;;18.90;99.90;;;;;;5073101;28;20186;-42
2022/08/14 05:20:49;;;;;;;4.90;4.50;;;19.00;99.90;;;;;;5054999;28;20204;-43
2022/08/14 05:23:17;;;;;;;6.23;4.50;;;19.00;99.90;;;;;;5073340;28;20251;-44
2022/08/14 05:25:43;;;;;;;7.77;4.90;;;19.10;99.90;;;;;;5073255;28;20184;-43
2022/08/14 05:28:20;;;;;;;5.67;4.57;;;19.10;99.90;;;;;;5073268;28;20206;-44
2022/08/14 05:30:51;;;;;;;10.30;4.87;;;19.20;99.90;;;;;;5073158;28;20202;-39
2022/08/14 05:33:19;;;;;;;5.03;4.50;;;19.20;99.90;;;;;;5073255;28;20582;-39
2022/08/14 05:35:47;;;;;;;6.80;4.43;;;19.30;99.90;;;;;;5072901;28;20172;-38
2022/08/14 05:38:15;;;;;;;6.13;4.60;;;19.30;99.90;;;;;;5073701;28;20176;-40
2022/08/14 05:40:42;;;;;;;5.20;4.27;;;19.20;99.90;;;;;;5073035;28;20565;-39
2022/08/14 05:43:08;;;;;;;5.87;4.40;;;19.30;99.90;;;;;;5072715;28;20204;-38
2022/08/14 05:45:34;;;;;;;8.03;4.40;;;19.30;99.90;;;;;;5072830;28;20198;-38
2022/08/14 05:48:03;;;;;;;6.03;4.27;;;19.30;99.90;;;;;;5072812;28;20652;-40
2022/08/14 05:50:29;;;;;;;6.90;4.73;;;19.40;99.90;;;;;;5072696;28;20191;-39
2022/08/14 05:52:55;;;;;;;4.30;3.87;;;19.40;99.90;;;;;;5073064;28;20581;-38
2022/08/14 05:55:21;;;;;;;5.87;4.20;;;19.40;99.90;;;;;;5073005;28;20198;-40
2022/08/14 05:57:52;;;;;;;5.90;4.40;;;19.50;99.90;;;;;;5073009;28;20317;-40
2022/08/14 06:00:21;;;;;;;7.00;4.80;;;19.60;99.90;;;;;;5072868;28;20238;-39
2022/08/14 06:02:46;;;;;;;8.13;4.53;;;19.70;99.90;;;;;;5073282;28;20203;-38
2022/08/14 06:05:12;;;;;;;4.77;4.27;;;19.70;99.90;;;;;;5076206;28;20194;-39
2022/08/14 06:07:38;;;;;;;6.23;4.70;;;19.80;99.90;;;;;;5076284;28;20171;-39
2022/08/14 06:10:06;;;;;;;4.73;4.30;;;19.90;99.90;;;;;;5076191;28;20172;-41
2022/08/14 06:12:32;;;;;;;5.00;4.50;;;20.00;99.90;;;;;;5076482;28;20270;-39
2022/08/14 06:14:58;;;;;;;5.17;4.67;;;20.00;99.90;;;;;;5076145;28;20206;-39
2022/08/14 06:17:24;;;;;;;6.33;4.70;;;20.20;99.90;;;;;;5076369;28;20274;-41
2022/08/14 06:19:50;;;;;;;5.23;4.70;;;20.30;99.90;;;;;;5076590;28;20222;-39
2022/08/14 06:22:15;;;;;;;5.30;4.80;;;20.40;99.90;;;;;;5076028;28;20574;-41
2022/08/14 06:24:41;;;;;;;6.93;5.27;;;20.50;99.90;;;;;;5076130;28;20180;-39
2022/08/14 06:27:06;;;;;;;7.30;4.97;;;20.60;99.90;;;;;;5075874;28;20588;-39
2022/08/14 06:29:33;;;;;;;6.70;5.10;;;20.70;99.90;;;;;;5075965;28;20176;-39
2022/08/14 06:31:58;;;;;;;5.93;5.20;;;20.70;99.90;;;;;;5076041;28;20357;-40
2022/08/14 06:34:24;;;;;;;5.37;4.83;;;20.90;99.90;;;;;;5076094;28;20303;-39
2022/08/14 06:36:49;;;;;;;7.43;4.40;;;21.00;99.90;;;;;;5076000;28;20218;-39
2022/08/14 06:39:15;;;;;;;5.87;5.00;;;21.10;99.90;;;;;;5057745;28;20602;-39
2022/08/14 06:41:41;;;;;;;5.40;4.90;;;21.20;99.90;;;;;;5075535;28;20250;-40
2022/08/14 06:44:07;;;;;;;5.87;4.80;;;21.30;99.90;;;;;;5075940;28;20191;-40
2022/08/14 06:46:33;;;;;;;6.63;4.67;;;21.50;99.90;;;;;;5075556;28;20179;-40
2022/08/14 06:48:59;;;;;;;5.33;4.73;;;21.60;99.90;;;;;;5076053;28;20191;-41
2022/08/14 06:51:24;;;;;;;5.90;5.10;;;21.70;99.90;;;;;;5075635;28;20199;-40
2022/08/14 06:53:50;;;;;;;5.37;4.87;;;21.90;99.90;;;;;;5075985;28;20270;-40
2022/08/14 06:56:15;;;;;;;7.53;4.60;;;22.10;99.90;;;;;;5075962;28;20599;-40
2022/08/14 06:58:41;;;;;;;5.40;4.90;;;22.20;99.90;;;;;;5075394;28;20219;-40
2022/08/14 07:06:35;;;;;;;5.17;4.73;;;22.80;99.90;;;;;;5075323;28;20674;-40
2022/08/14 07:09:03;;;;;;;5.13;4.50;;;22.90;99.90;;;;;;5075124;28;20184;-41
2022/08/14 07:11:29;;;;;;;7.87;4.83;;;23.10;99.90;;;;;;5075233;28;20211;-40
2022/08/14 07:13:54;;;;;;;5.20;4.70;;;23.30;99.90;;;;;;5075066;28;20687;-41
2022/08/14 07:16:21;;;;;;;5.30;4.80;;;23.50;99.90;;;;;;5074332;28;20659;-40
2022/08/14 07:18:47;;;;;;;5.57;4.97;;;23.60;99.90;;;;;;5075707;28;20195;-41
2022/08/14 07:21:12;;;;;;;6.63;4.97;;;23.80;99.90;;;;;;5074768;28;20207;-39
2022/08/14 07:23:38;;;;;;;5.20;4.70;;;23.90;99.90;;;;;;5074894;28;20175;-42
2022/08/14 07:26:05;;;;;;;5.97;4.80;;;24.10;99.90;;;;;;5074883;28;20180;-40
2022/08/14 07:28:37;;;;;;;9.20;5.20;;;24.20;99.90;;;;;;5075072;28;20253;-42
2022/08/14 07:31:05;;;;;;;6.80;5.13;;;24.40;99.90;;;;;;5074720;28;20205;-41
2022/08/14 07:33:37;;;;;;;5.30;4.67;;;24.50;99.90;;;;;;5074843;28;20521;-42
2022/08/14 07:36:10;;;;;;;7.30;5.20;;;24.60;99.90;;;;;;5074633;28;20179;-42
2022/08/14 07:38:39;;;;;;;5.30;4.80;;;24.70;99.90;;;;;;5074924;28;20695;-42
2022/08/14 07:41:09;;;;;;;5.13;4.70;;;24.80;99.90;;;;;;5074267;28;20202;-42
2022/08/14 07:43:39;;;;;;;4.87;4.40;;;24.90;99.90;;;;;;5074426;28;20213;-42
2022/08/14 07:46:09;;;;;;;5.83;4.60;;;25.10;99.90;;;;;;5074331;28;20229;-42
2022/08/14 07:48:47;;;;;;;5.50;4.73;;;25.20;99.90;;;;;;5074315;28;20171;-41
2022/08/14 07:51:20;;;;;;;5.30;4.80;;;25.20;99.90;;;;;;5074448;28;20238;-41
2022/08/14 07:53:46;;;;;;;5.83;4.60;;;25.40;99.90;;;;;;5074213;28;20215;-44
2022/08/14 07:56:17;;;;;;;6.93;5.17;;;25.50;99.90;;;;;;5073233;28;20234;-43
2022/08/14 07:58:46;;;;;;;4.50;4.10;;;25.60;99.90;;;;;;5073887;28;20223;-44
2022/08/14 08:01:18;;;;;;;4.87;4.23;;;25.80;99.90;;;;;;5074002;28;20202;-43
2022/08/14 08:03:49;;;;;;;6.00;4.43;;;25.90;99.90;;;;;;5074638;28;20160;-43
2022/08/14 08:06:19;;;;;;;5.27;4.77;;;26.00;99.90;;;;;;5073790;28;20563;-41
2022/08/14 08:08:58;;;;;;;5.47;4.43;;;26.10;99.90;;;;;;5074479;28;20186;-42
2022/08/14 08:11:39;;;;;;;6.23;4.50;;;26.20;99.90;;;;;;5073892;28;20199;-42
2022/08/14 08:14:06;;;;;;;6.83;4.23;;;26.40;99.90;;;;;;5073883;28;20205;-43
2022/08/14 08:16:37;;;;;;;5.50;4.20;;;26.40;99.90;;;;;;5072952;28;20198;-44
2022/08/14 08:19:07;;;;;;;5.93;4.20;;;26.50;99.90;;;;;;5073783;28;20179;-42
2022/08/14 08:21:38;;;;;;;4.67;4.27;;;26.60;99.90;;;;;;5073649;28;20682;-44
2022/08/14 08:24:05;;;;;;;5.43;4.93;;;26.70;99.90;;;;;;5073072;28;20194;-46
2022/08/14 08:26:40;;;;;;;6.77;4.30;;;26.80;99.90;;;;;;5073513;28;20182;-44
2022/08/14 08:29:05;;;;;;;7.73;4.47;;;26.90;99.90;;;;;;5073678;28;20177;-45
2022/08/14 08:31:31;;;;;;;4.77;4.23;;;27.10;99.90;;;;;;5073853;28;20212;-45
2022/08/14 08:34:06;;;;;;;4.77;4.20;;;27.20;99.90;;;;;;5073583;28;20549;-45
2022/08/14 08:36:40;;;;;;;5.50;4.73;;;27.30;99.70;;;;;;5073509;28;20186;-45
2022/08/14 08:39:16;;;;;;;6.07;4.60;;;27.30;99.70;;;;;;5072610;28;20187;-45
2022/08/14 08:41:46;;;;;;;7.63;4.50;;;27.50;99.60;;;;;;5073443;28;20260;-44
2022/08/14 08:44:22;;;;;;;4.87;4.47;;;27.60;99.10;;;;;;5072870;28;20608;-44
2022/08/14 08:47:04;;;;;;;11.57;4.40;;;27.70;98.80;;;;;;5073726;28;20178;-45
2022/08/14 08:49:45;;;;;;;5.33;4.37;;;27.80;98.30;;;;;;5073681;28;20183;-44
2022/08/14 08:52:57;;;;;;;6.73;4.17;;;27.90;98.80;;;;;;5073236;28;20213;-45
2022/08/14 08:55:49;;;;;;;4.53;4.10;;;28.00;97.60;;;;;;5070061;28;20198;-44
2022/08/14 08:58:23;;;;;;;5.97;4.57;;;28.20;97.10;;;;;;5068876;28;20231;-45
2022/08/14 09:00:55;;;;;;;4.33;3.93;;;28.20;96.90;;;;;;5073173;28;20202;-45
2022/08/14 09:03:36;;;;;;;4.50;3.90;;;28.30;97.10;;;;;;5073422;28;20260;-45
2022/08/14 09:06:11;;;;;;;4.47;4.03;;;28.50;97.20;;;;;;5073692;28;20194;-46
2022/08/14 09:08:44;;;;;;;5.17;4.10;;;28.70;96.70;;;;;;5073301;28;20627;-44
2022/08/14 09:11:11;;;;;;;4.13;3.83;;;28.80;96.50;;;;;;5073348;28;20234;-45
2022/08/14 09:13:36;;;;;;;5.00;3.80;;;28.90;96.20;;;;;;5073520;28;20249;-45
2022/08/14 09:16:02;;;;;;;5.53;4.10;;;29.00;96.20;;;;;;5055228;28;20179;-45
2022/08/14 09:18:28;;;;;;;5.57;3.70;;;29.10;95.20;;;;;;5073189;28;20183;-45
2022/08/14 09:20:55;;;;;;;3.73;3.40;;;29.30;94.70;;;;;;5073211;28;20291;-46
2022/08/14 09:23:22;;;;;;;4.40;3.80;;;29.40;94.60;;;;;;5073314;28;20551;-46
2022/08/14 09:25:52;;;;;;;4.20;3.80;;;29.40;93.80;;;;;;5055348;28;20183;-45
2022/08/14 09:28:19;;;;;;;4.10;3.70;;;29.50;94.20;;;;;;5055013;28;20182;-46
2022/08/14 09:30:55;;;;;;;4.87;3.97;;;29.70;93.90;;;;;;5073165;28;20199;-45
2022/08/14 09:33:46;;;;;;;4.03;3.63;;;29.70;93.70;;;;;;5073331;28;20176;-46
2022/08/14 09:36:33;;;;;;;5.22;3.97;;;29.90;93.50;;;;;;5072908;28;20306;-46
2022/08/14 09:39:16;;;;;;;4.20;3.63;;;30.00;92.60;;;;;;5075670;28;20168;-44
2022/08/14 09:41:57;;;;;;;3.90;3.60;;;30.00;92.10;;;;;;5076832;28;20210;-45
2022/08/14 09:44:47;;;;;;;3.60;3.30;;;30.20;92.30;;;;;;5076750;28;20175;-45
2022/08/14 09:47:17;;;;;;;3.95;3.60;;;30.20;91.80;;;;;;5077124;28;20176;-43
2022/08/14 09:49:43;;;;;;;4.00;3.42;;;30.30;92.00;;;;;;5076718;28;20636;-43
2022/08/14 09:52:14;;;;;;;3.67;3.38;;;30.40;92.20;;;;;;5076803;28;20211;-43
2022/08/14 09:54:46;;;;;;;3.67;3.38;;;30.50;91.90;;;;;;5077137;28;20186;-43
2022/08/14 09:57:26;;;;;;;3.63;2.78;;;30.50;91.40;;;;;;5076788;28;20179;-43
2022/08/14 09:59:53;;;;;;;8.15;3.00;;;30.60;90.30;;;;;;5076782;28;20286;-43
2022/08/14 10:02:22;;;;;;;3.25;2.92;;;30.70;91.30;;;;;;5076349;28;20203;-43
2022/08/14 10:05:09;;;;;;;3.13;2.83;;;30.70;89.40;;;;;;5058334;28;20263;-43
2022/08/14 10:07:50;;;;;;;3.50;2.97;;;30.80;90.50;;;;;;5076396;28;20164;-44
2022/08/14 10:10:33;;;;;;;4.50;3.33;;;30.80;88.90;;;;;;5076622;28;20188;-43
2022/08/14 10:13:01;;;;;;;4.05;3.65;;;31.00;90.10;;;;;;5076679;28;20680;-44
2022/08/14 10:15:29;;;;;;;5.82;2.90;;;31.00;90.00;;;;;;5076475;28;20195;-43
2022/08/14 10:18:08;;;;;;;3.70;3.10;;;31.10;85.50;;;;;;5076459;28;20263;-44
2022/08/14 10:20:41;;;;;;;3.58;3.05;;;31.10;85.60;;;;;;5076065;28;20604;-43
2022/08/14 10:23:18;;;;;;;3.22;3.00;;;31.10;87.80;;;;;;5076446;28;20226;-43
2022/08/14 10:25:51;;;;;;;4.18;3.10;;;31.20;88.80;;;;;;5076135;28;20160;-45
2022/08/14 10:28:19;;;;;;;4.43;2.80;;;31.30;88.60;;;;;;5076416;28;20155;-44
2022/08/14 10:30:52;;;;;;;3.42;3.13;;;31.50;86.10;;;;;;5075996;28;20223;-44
2022/08/14 10:33:45;;;;;;;4.63;3.70;;;31.50;85.70;;;;;;5076263;28;20174;-44
2022/08/14 10:36:10;;;;;;;3.08;2.80;;;31.50;87.10;;;;;;5053938;28;20233;-44
2022/08/14 10:38:36;;;;;;;3.45;3.20;;;31.60;87.20;;;;;;5076164;28;20180;-44
2022/08/14 10:41:13;;;;;;;4.53;3.33;;;31.70;84.10;;;;;;5075725;28;20269;-43
2022/08/14 10:43:40;;;;;;;3.45;3.15;;;31.70;86.70;;;;;;5076381;28;20160;-43
2022/08/14 10:46:17;;;;;;;4.32;3.45;;;31.90;86.90;;;;;;5075757;28;20218;-44
2022/08/14 10:48:58;;;;;;;4.22;3.22;;;32.00;87.60;;;;;;5075549;28;20217;-44
2022/08/14 10:51:28;;;;;;;4.93;3.15;;;32.00;87.30;;;;;;5075823;28;20195;-44
2022/08/14 10:53:55;;;;;;;5.57;3.17;;;32.10;84.30;;;;;;5075845;28;20186;-45
2022/08/14 10:56:32;;;;;;;3.08;2.80;;;32.20;83.50;;;;;;5075686;28;20179;-43
2022/08/14 10:59:07;;;;;;;3.10;2.80;;;32.30;83.10;;;;;;5076704;28;20247;-44
2022/08/14 11:01:34;;;;;;;6.60;3.00;;;32.40;82.70;;;;;;5078396;28;20238;-43
2022/08/14 11:04:00;;;;;;;4.22;3.15;;;32.40;79.50;;;;;;5077536;28;20237;-44
2022/08/14 11:06:27;;;;;;;3.30;3.00;;;32.50;78.10;;;;;;5077372;28;20628;-44
2022/08/14 11:08:54;;;;;;;3.40;3.10;;;32.30;79.70;;;;;;5077373;28;20175;-43
2022/08/14 11:11:26;;;;;;;3.85;2.90;;;32.30;77.40;;;;;;5077778;28;20203;-43
2022/08/14 11:13:56;;;;;;;3.42;2.83;;;32.30;79.60;;;;;;5077880;28;20164;-43
2022/08/14 11:16:23;;;;;;;4.20;2.85;;;32.30;80.70;;;;;;5077279;28;20176;-44
2022/08/14 11:18:49;;;;;;;4.22;3.00;;;32.40;76.90;;;;;;5075551;28;20254;-44
2022/08/14 11:21:19;;;;;;;4.43;2.72;;;32.50;80.50;;;;;;5074942;28;20207;-44
2022/08/14 11:23:48;;;;;;;2.90;2.70;;;32.60;79.90;;;;;;5075539;28;20175;-44
2022/08/14 11:26:19;;;;;;;3.25;2.80;;;32.70;79.10;;;;;;5074771;28;20175;-43
2022/08/14 11:28:47;;;;;;;3.38;2.58;;;32.70;81.10;;;;;;5075122;28;20583;-43
2022/08/14 11:31:13;;;;;;;2.63;2.42;;;32.80;79.00;;;;;;5074613;28;20227;-43
2022/08/14 11:33:40;;;;;;;3.03;2.53;;;32.90;79.60;;;;;;5074938;28;20179;-43
2022/08/14 11:36:08;;;;;;;2.40;2.20;;;33.00;79.70;;;;;;5074847;28;20171;-44
2022/08/14 11:38:39;;;;;;;2.60;2.40;;;33.10;79.00;;;;;;5074644;28;20178;-44
2022/08/14 11:41:06;;;;;;;2.63;2.42;;;33.20;74.30;;;;;;5074627;28;20275;-45
2022/08/14 11:43:37;;;;;;;3.65;2.50;;;33.20;75.70;;;;;;5074803;28;20172;-43
2022/08/14 11:46:02;;;;;;;3.67;2.58;;;33.20;74.40;;;;;;5074580;28;20252;-44
2022/08/14 11:48:28;;;;;;;3.22;2.58;;;33.20;78.00;;;;;;5074457;28;20259;-45
2022/08/14 11:50:54;;;;;;;2.67;2.47;;;33.30;78.10;;;;;;5056324;28;20675;-43
2022/08/14 11:53:22;;;;;;;3.38;3.00;;;33.50;78.80;;;;;;5074281;28;20270;-43
2022/08/14 11:56:00;;;;;;;6.43;2.88;;;33.60;75.80;;;;;;5074496;28;20191;-43
2022/08/14 11:58:31;;;;;;;4.80;2.80;;;33.60;76.20;;;;;;5074749;28;20239;-44
2022/08/14 12:01:00;;;;;;;4.10;2.80;;;33.60;71.50;;;;;;5074142;28;20558;-44
2022/08/14 12:03:40;;;;;;;3.20;2.63;;;33.40;74.50;;;;;;5074351;28;20230;-44
2022/08/14 12:06:15;;;;;;;3.53;2.45;;;33.40;73.20;;;;;;5074091;28;20202;-44
2022/08/14 12:08:41;;;;;;;3.47;2.88;;;33.50;75.70;;;;;;5074119;28;20680;-44
2022/08/14 12:11:10;;;;;;;2.92;2.58;;;33.60;77.20;;;;;;5074265;28;20207;-44
2022/08/14 12:13:36;;;;;;;4.25;2.90;;;33.50;74.20;;;;;;5073948;28;20168;-45
2022/08/14 12:16:06;;;;;;;4.43;2.60;;;33.60;74.70;;;;;;5073884;28;20198;-44
2022/08/14 12:18:33;;;;;;;3.22;2.50;;;33.60;72.80;;;;;;5074197;28;20186;-42
2022/08/14 12:21:18;;;;;;;2.88;2.60;;;33.80;77.50;;;;;;5073951;28;20244;-42
2022/08/14 12:23:46;;;;;;;2.78;2.50;;;34.00;79.60;;;;;;5074020;28;20226;-42
2022/08/14 12:26:19;;;;;;;4.05;2.60;;;34.10;74.90;;;;;;5073717;28;20228;-42
2022/08/14 12:28:48;;;;;;;3.35;2.72;;;34.20;76.90;;;;;;5073903;28;20266;-40
2022/08/14 12:31:16;;;;;;;2.30;2.10;;;34.30;76.50;;;;;;5073884;28;20199;-42
2022/08/14 12:33:42;;;;;;;3.05;2.67;;;34.40;77.90;;;;;;5073577;28;20171;-41
2022/08/14 12:36:19;;;;;;;3.00;2.80;;;34.50;72.00;;;;;;5073802;28;20197;-40
2022/08/14 12:38:45;;;;;;;3.13;2.72;;;34.30;70.40;;;;;;5073865;28;20163;-41
2022/08/14 12:41:14;;;;;;;2.42;2.28;;;34.00;72.40;;;;;;5073611;28;20321;-41
2022/08/14 12:43:50;;;;;;;4.88;2.55;;;34.00;71.50;;;;;;5073761;28;20228;-41
2022/08/14 12:46:30;;;;;;;2.58;2.38;;;34.10;72.50;;;;;;5073721;28;20179;-41
2022/08/14 12:49:07;;;;;;;4.70;2.80;;;34.20;71.10;;;;;;5055492;28;20228;-41
2022/08/14 12:51:33;;;;;;;2.60;2.40;;;34.30;71.50;;;;;;5073469;28;20233;-42
2022/08/14 12:53:59;;;;;;;3.95;2.40;;;34.40;71.90;;;;;;5073409;28;20654;-41
2022/08/14 12:56:26;;;;;;;2.67;2.30;;;34.60;70.60;;;;;;5073598;28;20187;-41
2022/08/14 12:58:57;;;;;;;2.20;2.10;;;34.70;72.90;;;;;;5073304;28;20179;-41
2022/08/14 13:01:27;;;;;;;2.45;2.25;;;34.80;72.90;;;;;;5073164;28;20253;-42
2022/08/14 13:04:28;;;;;;;2.70;2.25;;;34.80;69.50;;;;;;5073638;28;20160;-42
2022/08/14 13:06:53;;;;;;;3.72;2.50;;;34.90;72.10;;;;;;5020039;28;20235;-41
2022/08/14 13:09:20;;;;;;;3.03;2.42;;;35.00;72.20;;;;;;5074006;28;20183;-42
2022/08/14 13:11:50;;;;;;;3.22;2.70;;;35.00;67.90;;;;;;5073400;28;20207;-43
2022/08/14 13:14:24;;;;;;;3.00;2.60;;;34.80;65.40;;;;;;5076196;28;20168;-42